Station: EBLG - 15/10/2018 15:50Z (il y a 22 minutes)
EBLG 151550Z 19007KT CAVOK 22/09 Q1014 NOSIG
Vent du 190º - 7 kt
Visibilité > 10 km et plafond haut ou pas de nuages significatifs
Température: +22ºC - Point de rosée: +09ºC - QNH: 1014 hPa
Pas de changement significatif prévu dans les 2 heures qui suivent l'observation